Terminal Aerodrome Forecast
Issued by NWS

Home | Current Version | Previous Version | Text Only | Print | Product List | Glossary On
Versions: 1 2 3 4 5 6 7 8 9 10 11 12 13 14 15 16 17 18 19 20 21 22 23
000
FTUS43 KJKL 172100 AAA
TAFSME
TAF AMD
KSME 172137Z 1722/1818 VRB03KT P6SM VCSH SCT040 BKN070
      TEMPO 1722/1724 2SM -TSRA BR BKN012 OVC018CB
     FM180200 VRB04KT 3SM SHRA VCTS OVC035CB
     FM180700 VRB03KT 2SM SHRA VCTS BKN009 OVC015CB
     FM181300 VRB03KT 4SM BR OVC015
     FM181700 VRB03KT P6SM BKN035=

USA.gov is the U.S. government's official web portal to all federal, state and local government web resources and services.